createdAt,value
2018-12-19T00:00:08.648Z,5.10
2018-12-19T00:01:08.636Z,6.90
2018-12-19T00:02:08.628Z,5.90
2018-12-19T00:03:08.617Z,5.60
2018-12-19T00:04:08.612Z,5.60
2018-12-19T00:05:08.600Z,5.40
2018-12-19T00:06:08.591Z,6.30
2018-12-19T00:07:08.580Z,5.70
2018-12-19T00:08:08.573Z,5.60
2018-12-19T00:09:08.563Z,5.40
2018-12-19T00:10:08.555Z,5.00
2018-12-19T00:11:08.543Z,5.40
2018-12-19T00:12:08.538Z,5.60
2018-12-19T00:13:08.525Z,6.10
2018-12-19T00:14:08.518Z,5.20
2018-12-19T00:15:08.506Z,5.20
2018-12-19T00:16:08.499Z,7.60
2018-12-19T00:17:08.488Z,5.10
2018-12-19T00:18:08.480Z,5.20
2018-12-19T00:19:08.469Z,5.70
2018-12-19T00:20:08.462Z,5.70
2018-12-19T00:21:08.451Z,5.40
2018-12-19T00:22:08.443Z,5.10
2018-12-19T00:23:08.431Z,5.20
2018-12-19T00:24:08.425Z,4.80
2018-12-19T00:25:08.414Z,5.90
2018-12-19T00:26:08.464Z,4.80
2018-12-19T00:27:08.395Z,6.00
2018-12-19T00:28:08.391Z,5.90
2018-12-19T00:29:08.377Z,7.20
2018-12-19T00:30:08.368Z,5.10
2018-12-19T00:31:08.357Z,5.10
2018-12-19T00:32:08.350Z,4.90
2018-12-19T00:33:08.339Z,4.90
2018-12-19T00:34:08.330Z,4.90
2018-12-19T00:35:08.319Z,5.30
2018-12-19T00:36:08.317Z,5.10
2018-12-19T00:37:08.301Z,4.80
2018-12-19T00:38:08.293Z,5.50
2018-12-19T00:39:09.775Z,4.50
2018-12-19T00:40:08.277Z,4.90
2018-12-19T00:41:08.264Z,4.80
2018-12-19T00:42:08.259Z,5.00
2018-12-19T00:43:08.246Z,6.20
2018-12-19T00:44:08.244Z,5.40
2018-12-19T00:45:08.228Z,6.00
2018-12-19T00:46:08.371Z,5.00
2018-12-19T00:47:08.208Z,4.80
2018-12-19T00:48:08.201Z,5.00
2018-12-19T00:49:08.194Z,5.50
2018-12-19T00:50:08.194Z,5.20
2018-12-19T00:51:08.173Z,5.40
2018-12-19T00:52:08.165Z,5.30
2018-12-19T00:53:08.163Z,4.90
2018-12-19T00:54:08.146Z,5.30
2018-12-19T00:55:08.135Z,4.60
2018-12-19T00:56:08.128Z,5.40
2018-12-19T00:57:08.120Z,4.50
2018-12-19T00:58:08.111Z,5.30
2018-12-19T00:59:08.106Z,6.60
2018-12-19T01:00:08.093Z,5.00
2018-12-19T01:01:08.081Z,5.70
2018-12-19T01:02:08.073Z,4.90
2018-12-19T01:03:08.062Z,4.70
2018-12-19T01:04:08.057Z,4.90
2018-12-19T01:05:08.045Z,5.20
2018-12-19T01:06:08.037Z,4.70
2018-12-19T01:07:08.027Z,4.80
2018-12-19T01:08:08.026Z,5.10
2018-12-19T01:09:08.009Z,5.50
2018-12-19T01:10:08.001Z,6.10
2018-12-19T01:11:07.990Z,5.90
2018-12-19T01:12:07.985Z,5.50
2018-12-19T01:13:07.973Z,5.90
2018-12-19T01:14:07.966Z,6.90
2018-12-19T01:15:07.954Z,5.30
2018-12-19T01:16:07.947Z,6.30
2018-12-19T01:17:07.939Z,5.20
2018-12-19T01:18:07.927Z,5.80
2018-12-19T01:19:07.921Z,5.00
2018-12-19T01:20:07.910Z,6.50
2018-12-19T01:21:07.903Z,5.30
2018-12-19T01:22:07.894Z,6.90
2018-12-19T01:23:07.887Z,5.70
2018-12-19T01:24:07.875Z,7.60
2018-12-19T01:25:07.868Z,6.80
2018-12-19T01:26:07.857Z,7.30
2018-12-19T01:27:07.856Z,7.90
2018-12-19T01:28:07.839Z,6.50
2018-12-19T01:29:07.833Z,6.70
2018-12-19T01:30:07.823Z,7.50
2018-12-19T01:31:07.816Z,7.60
2018-12-19T01:32:07.807Z,8.10
2018-12-19T01:33:07.800Z,8.20
2018-12-19T01:34:07.787Z,5.20
2018-12-19T01:35:07.781Z,6.60
2018-12-19T01:36:07.775Z,7.10
2018-12-19T01:37:07.765Z,6.50
2018-12-19T01:38:07.752Z,7.40
2018-12-19T01:39:07.748Z,6.90
2018-12-19T01:40:07.735Z,5.60
2018-12-19T01:41:07.730Z,5.70
2018-12-19T01:42:07.717Z,5.10
2018-12-19T01:43:07.711Z,4.70
2018-12-19T01:44:07.699Z,4.60
2018-12-19T01:45:07.693Z,5.40
2018-12-19T01:46:07.684Z,5.30
2018-12-19T01:47:07.675Z,6.10
2018-12-19T01:48:07.667Z,5.00
2018-12-19T01:49:07.658Z,5.60
2018-12-19T01:50:07.646Z,6.30
2018-12-19T01:51:07.640Z,4.60
2018-12-19T01:52:07.629Z,5.30
2018-12-19T01:53:07.624Z,5.20
2018-12-19T01:54:07.612Z,4.50
2018-12-19T01:55:07.609Z,6.50
2018-12-19T01:56:07.594Z,4.60
2018-12-19T01:57:07.588Z,5.40
2018-12-19T01:58:07.578Z,5.10
2018-12-19T01:59:07.570Z,4.40
2018-12-19T02:00:07.559Z,5.30
2018-12-19T02:01:07.554Z,5.00
2018-12-19T02:02:07.541Z,5.60
2018-12-19T02:03:07.535Z,5.20
2018-12-19T02:04:07.524Z,4.80
2018-12-19T02:05:07.518Z,5.00
2018-12-19T02:06:07.505Z,5.10
2018-12-19T02:07:07.500Z,5.90
2018-12-19T02:08:07.489Z,6.20
2018-12-19T02:09:07.483Z,5.30
2018-12-19T02:10:07.470Z,5.30
2018-12-19T02:11:07.465Z,6.20
2018-12-19T02:12:07.453Z,5.20
2018-12-19T02:13:07.448Z,5.20
2018-12-19T02:14:07.434Z,5.80
2018-12-19T02:15:07.428Z,5.40
2018-12-19T02:16:07.417Z,6.30
2018-12-19T02:17:07.411Z,5.90
2018-12-19T02:18:07.401Z,6.10
2018-12-19T02:19:07.393Z,5.30
2018-12-19T02:20:07.384Z,4.70
2018-12-19T02:21:07.376Z,5.40
2018-12-19T02:22:07.365Z,4.70
2018-12-19T02:23:07.358Z,6.00
2018-12-19T02:24:07.347Z,6.60
2018-12-19T02:25:07.351Z,5.10
2018-12-19T02:26:07.329Z,5.10
2018-12-19T02:27:07.324Z,6.20
2018-12-19T02:28:07.312Z,5.90
2018-12-19T02:29:07.310Z,5.40
2018-12-19T02:30:07.295Z,6.00
2018-12-19T02:31:07.289Z,6.70
2018-12-19T02:32:07.278Z,6.50
2018-12-19T02:33:07.280Z,6.30
2018-12-19T02:34:07.260Z,5.70
2018-12-19T02:35:07.261Z,6.60
2018-12-19T02:36:07.243Z,5.40
2018-12-19T02:37:07.236Z,4.50
2018-12-19T02:38:07.225Z,5.00
2018-12-19T02:39:07.223Z,5.00
2018-12-19T02:40:07.227Z,4.90
2018-12-19T02:41:07.203Z,4.80
2018-12-19T02:42:07.190Z,5.00
2018-12-19T02:43:07.184Z,4.70
2018-12-19T02:44:07.173Z,5.20
2018-12-19T02:45:07.169Z,4.90
2018-12-19T02:46:07.156Z,5.00
2018-12-19T02:47:07.149Z,4.60
2018-12-19T02:48:07.138Z,6.00
2018-12-19T02:49:07.132Z,4.70
2018-12-19T02:50:07.123Z,4.60
2018-12-19T02:51:07.115Z,5.50
2018-12-19T02:52:07.104Z,5.00
2018-12-19T02:53:07.100Z,4.80
2018-12-19T02:54:07.086Z,4.40
2018-12-19T02:55:07.085Z,6.30
2018-12-19T02:56:07.075Z,4.60
2018-12-19T02:57:07.064Z,5.20
2018-12-19T02:58:07.052Z,4.50
2018-12-19T02:59:07.047Z,4.50
2018-12-19T03:00:07.035Z,4.50
2018-12-19T03:01:07.029Z,4.60
2018-12-19T03:02:07.018Z,4.80
2018-12-19T03:03:07.012Z,4.30
2018-12-19T03:04:07.003Z,4.90
2018-12-19T03:05:06.999Z,5.30
2018-12-19T03:06:06.992Z,4.20
2018-12-19T03:07:06.978Z,4.40
2018-12-19T03:08:06.968Z,4.60
2018-12-19T03:09:06.963Z,4.90
2018-12-19T03:10:07.255Z,4.70
2018-12-19T03:11:06.946Z,4.30
2018-12-19T03:12:06.934Z,4.90
2018-12-19T03:13:06.928Z,4.30
2018-12-19T03:14:06.918Z,4.50
2018-12-19T03:15:06.910Z,5.60
2018-12-19T03:16:06.900Z,5.10
2018-12-19T03:17:06.894Z,4.40
2018-12-19T03:18:06.890Z,4.70
2018-12-19T03:19:06.877Z,5.00
2018-12-19T03:20:06.869Z,4.20
2018-12-19T03:21:07.113Z,4.90
2018-12-19T03:22:06.851Z,4.90
2018-12-19T03:23:06.846Z,4.30
2018-12-19T03:24:06.834Z,4.50
2018-12-19T03:25:06.828Z,4.20
2018-12-19T03:26:06.817Z,4.00
2018-12-19T03:27:06.851Z,4.30
2018-12-19T03:28:06.803Z,4.60
2018-12-19T03:29:06.820Z,4.40
2018-12-19T03:30:06.786Z,4.20
2018-12-19T03:31:06.780Z,4.70
2018-12-19T03:32:06.770Z,4.50
2018-12-19T03:33:06.766Z,4.40
2018-12-19T03:34:06.753Z,3.90
2018-12-19T03:35:06.749Z,5.20
2018-12-19T03:36:06.798Z,4.90
2018-12-19T03:37:06.732Z,4.60
2018-12-19T03:38:06.719Z,4.60
2018-12-19T03:39:06.715Z,4.50
2018-12-19T03:40:06.704Z,4.60
2018-12-19T03:41:06.698Z,5.60
2018-12-19T03:42:06.687Z,4.80
2018-12-19T03:43:06.682Z,4.70
2018-12-19T03:44:06.671Z,4.40
2018-12-19T03:45:06.669Z,4.60
2018-12-19T03:46:06.654Z,4.40
2018-12-19T03:47:06.649Z,4.60
2018-12-19T03:48:06.638Z,4.40
2018-12-19T03:49:06.632Z,4.20
2018-12-19T03:50:06.620Z,6.20
2018-12-19T03:51:06.615Z,4.30
2018-12-19T03:52:06.612Z,4.60
2018-12-19T03:53:06.599Z,4.50
2018-12-19T03:54:06.602Z,4.40
2018-12-19T03:55:06.587Z,4.80
2018-12-19T03:56:06.572Z,4.60
2018-12-19T03:57:06.568Z,5.10
2018-12-19T03:58:06.555Z,5.00
2018-12-19T03:59:06.550Z,5.10
2018-12-19T04:00:06.541Z,4.50
2018-12-19T04:01:06.535Z,4.70
2018-12-19T04:02:06.523Z,4.80
2018-12-19T04:03:06.517Z,4.30
2018-12-19T04:04:06.508Z,4.60
2018-12-19T04:05:06.502Z,5.00
2018-12-19T04:06:06.492Z,4.40
2018-12-19T04:07:06.495Z,5.20
2018-12-19T04:08:06.475Z,4.40
2018-12-19T04:09:06.469Z,5.20
2018-12-19T04:10:06.459Z,6.20
2018-12-19T04:11:06.458Z,4.90
2018-12-19T04:12:06.446Z,5.20
2018-12-19T04:13:06.437Z,4.60
2018-12-19T04:14:06.426Z,5.20
2018-12-19T04:15:06.424Z,4.90
2018-12-19T04:16:06.411Z,5.40
2018-12-19T04:17:06.417Z,6.00
2018-12-19T04:18:06.394Z,5.30
2018-12-19T04:19:06.398Z,4.70
2018-12-19T04:20:06.396Z,4.60
2018-12-19T04:21:06.393Z,6.10
2018-12-19T04:22:06.363Z,5.00
2018-12-19T04:23:06.363Z,5.50
2018-12-19T04:24:06.348Z,5.20
2018-12-19T04:25:06.344Z,5.80
2018-12-19T04:26:06.343Z,5.20
2018-12-19T04:27:06.331Z,5.10
2018-12-19T04:28:06.331Z,4.80
2018-12-19T04:29:06.311Z,5.60
2018-12-19T04:30:06.300Z,5.00
2018-12-19T04:31:06.295Z,5.20
2018-12-19T04:32:06.300Z,5.00
2018-12-19T04:33:06.284Z,6.20
2018-12-19T04:34:06.269Z,5.00
2018-12-19T04:35:06.263Z,6.20
2018-12-19T04:36:06.255Z,5.20
2018-12-19T04:37:06.248Z,5.90
2018-12-19T04:38:06.242Z,5.80
2018-12-19T04:39:06.234Z,5.10
2018-12-19T04:40:06.319Z,5.50
2018-12-19T04:41:06.217Z,6.60
2018-12-19T04:42:06.207Z,6.40
2018-12-19T04:43:06.212Z,5.60
2018-12-19T04:44:06.192Z,6.10
2018-12-19T04:45:06.186Z,5.90
2018-12-19T04:46:06.175Z,6.00
2018-12-19T04:47:06.174Z,5.80
2018-12-19T04:48:06.161Z,5.40
2018-12-19T04:49:06.159Z,6.40
2018-12-19T04:50:06.145Z,5.40
2018-12-19T04:51:06.138Z,7.00
2018-12-19T04:52:06.129Z,6.90
2018-12-19T04:53:06.123Z,5.80
2018-12-19T04:54:06.123Z,7.10
2018-12-19T04:55:06.106Z,6.50
2018-12-19T04:56:06.097Z,6.10
2018-12-19T04:57:06.091Z,7.40
2018-12-19T04:58:06.080Z,5.20
2018-12-19T04:59:06.080Z,7.00
2018-12-19T05:00:06.077Z,6.40
2018-12-19T05:01:06.059Z,6.80
2018-12-19T05:02:06.047Z,7.20
2018-12-19T05:03:06.042Z,6.90
2018-12-19T05:04:06.031Z,6.10
2018-12-19T05:05:06.026Z,5.80
2018-12-19T05:06:06.016Z,6.20
2018-12-19T05:07:06.011Z,6.30
2018-12-19T05:08:05.998Z,7.90
2018-12-19T05:09:05.993Z,5.70
2018-12-19T05:10:12.107Z,5.70
2018-12-19T05:11:05.977Z,6.10
2018-12-19T05:12:05.965Z,6.40
2018-12-19T05:13:05.966Z,7.20
2018-12-19T05:14:05.962Z,6.20
2018-12-19T05:15:05.943Z,6.10
2018-12-19T05:16:05.933Z,6.90
2018-12-19T05:17:05.935Z,6.80
2018-12-19T05:18:05.917Z,5.90
2018-12-19T05:19:05.923Z,6.20
2018-12-19T05:20:06.151Z,5.60
2018-12-19T05:21:05.893Z,5.90
2018-12-19T05:22:05.882Z,5.70
2018-12-19T05:23:05.876Z,5.80
2018-12-19T05:24:05.866Z,5.80
2018-12-19T05:25:05.861Z,6.50
2018-12-19T05:26:05.853Z,6.20
2018-12-19T05:27:05.854Z,5.90
2018-12-19T05:28:05.842Z,5.80
2018-12-19T05:29:05.827Z,7.70
2018-12-19T05:30:05.816Z,5.90
2018-12-19T05:31:05.813Z,6.00
2018-12-19T05:32:05.802Z,5.40
2018-12-19T05:33:05.808Z,5.50
2018-12-19T05:34:05.786Z,5.90
2018-12-19T05:35:05.775Z,6.00
2018-12-19T05:36:05.770Z,6.00
2018-12-19T05:37:05.762Z,6.00
2018-12-19T05:38:05.765Z,6.70
2018-12-19T05:39:05.756Z,5.90
2018-12-19T05:40:05.752Z,6.40
2018-12-19T05:41:05.726Z,5.90
2018-12-19T05:42:05.720Z,5.70
2018-12-19T05:43:05.709Z,7.10
2018-12-19T05:44:05.703Z,5.40
2018-12-19T05:45:05.695Z,6.30
2018-12-19T05:46:05.701Z,5.60
2018-12-19T05:47:06.251Z,6.60
2018-12-19T05:48:05.675Z,5.90
2018-12-19T05:49:05.662Z,5.00
2018-12-19T05:50:05.654Z,6.30
2018-12-19T05:51:05.643Z,5.90
2018-12-19T05:52:05.653Z,6.40
2018-12-19T05:53:05.636Z,5.80
2018-12-19T05:54:05.621Z,5.00
2018-12-19T05:55:05.611Z,5.60
2018-12-19T05:56:05.605Z,5.60
2018-12-19T05:57:05.595Z,5.00
2018-12-19T05:58:05.603Z,5.10
2018-12-19T05:59:05.580Z,5.80
2018-12-19T06:00:05.574Z,6.50
2018-12-19T06:01:05.563Z,6.50
2018-12-19T06:02:05.556Z,5.60
2018-12-19T06:03:05.547Z,5.90
2018-12-19T06:04:05.541Z,4.80
2018-12-19T06:05:05.530Z,5.40
2018-12-19T06:06:05.530Z,7.20
2018-12-19T06:07:05.530Z,5.20
2018-12-19T06:08:05.523Z,4.90
2018-12-19T06:09:05.510Z,4.00
2018-12-19T06:10:05.512Z,6.40
2018-12-19T06:11:05.481Z,6.20
2018-12-19T06:12:05.476Z,7.40
2018-12-19T06:13:05.476Z,6.10
2018-12-19T06:14:05.460Z,4.60
2018-12-19T06:15:05.477Z,5.40
2018-12-19T06:16:05.444Z,6.00
2018-12-19T06:17:05.434Z,6.20
2018-12-19T06:18:05.427Z,6.20
2018-12-19T06:19:05.417Z,7.20
2018-12-19T06:20:05.411Z,6.60
2018-12-19T06:21:05.417Z,5.20
2018-12-19T06:22:05.397Z,5.20
2018-12-19T06:23:05.384Z,6.50
2018-12-19T06:24:05.378Z,5.30
2018-12-19T06:25:05.369Z,6.00
2018-12-19T06:26:05.388Z,5.70
2018-12-19T06:27:05.352Z,5.70
2018-12-19T06:28:05.355Z,5.70
2018-12-19T06:29:05.350Z,5.50
2018-12-19T06:30:05.330Z,5.90
2018-12-19T06:31:05.319Z,5.50
2018-12-19T06:32:05.325Z,3.90
2018-12-19T06:33:05.304Z,4.90
2018-12-19T06:34:05.297Z,6.60
2018-12-19T06:35:05.295Z,6.30
2018-12-19T06:36:05.293Z,6.90
2018-12-19T06:37:05.273Z,5.80
2018-12-19T06:38:05.266Z,4.50
2018-12-19T06:39:05.258Z,5.10
2018-12-19T06:40:05.250Z,3.50
2018-12-19T06:41:05.240Z,5.60
2018-12-19T06:42:05.235Z,4.40
2018-12-19T06:43:05.233Z,7.00
2018-12-19T06:44:05.220Z,5.60
2018-12-19T06:45:05.208Z,3.50
2018-12-19T06:46:05.201Z,4.00
2018-12-19T06:47:05.193Z,6.60
2018-12-19T06:48:05.198Z,6.40
2018-12-19T06:49:05.192Z,7.10
2018-12-19T06:50:05.188Z,6.80
2018-12-19T06:51:05.159Z,5.50
2018-12-19T06:52:05.154Z,4.30
2018-12-19T06:53:05.144Z,5.00
2018-12-19T06:54:05.137Z,4.30
2018-12-19T06:55:05.127Z,5.80
2018-12-19T06:56:05.127Z,3.90
2018-12-19T06:57:05.123Z,5.70
2018-12-19T06:58:05.105Z,5.40
2018-12-19T06:59:05.095Z,6.30
2018-12-19T07:00:05.090Z,4.80
2018-12-19T07:01:05.082Z,5.10
2018-12-19T07:02:05.078Z,5.90
2018-12-19T07:03:05.084Z,7.50
2018-12-19T07:04:05.074Z,6.00
2018-12-19T07:05:05.047Z,5.80
2018-12-19T07:06:05.042Z,6.60
2018-12-19T07:07:05.031Z,6.40
2018-12-19T07:08:05.026Z,6.30
2018-12-19T07:09:05.030Z,6.40
2018-12-19T07:10:05.013Z,6.30
2018-12-19T07:11:05.014Z,6.10
2018-12-19T07:12:04.995Z,5.70
2018-12-19T07:13:04.985Z,6.20
2018-12-19T07:14:04.977Z,6.00
2018-12-19T07:15:04.975Z,6.40
2018-12-19T07:16:04.963Z,7.10
2018-12-19T07:17:04.956Z,6.00
2018-12-19T07:18:04.946Z,5.00
2018-12-19T07:19:04.935Z,7.80
2018-12-19T07:20:04.930Z,5.50
2018-12-19T07:21:04.921Z,6.60
2018-12-19T07:22:04.914Z,6.00
2018-12-19T07:23:04.920Z,6.10
2018-12-19T07:24:04.898Z,6.80
2018-12-19T07:25:04.888Z,6.30
2018-12-19T07:26:04.882Z,7.60
2018-12-19T07:27:04.883Z,6.90
2018-12-19T07:28:04.866Z,7.30
2018-12-19T07:29:04.868Z,7.70
2018-12-19T07:30:04.849Z,7.00
2018-12-19T07:31:04.839Z,8.00
2018-12-19T07:32:04.833Z,7.30
2018-12-19T07:33:04.824Z,7.30
2018-12-19T07:34:04.826Z,5.60
2018-12-19T07:35:04.807Z,7.70
2018-12-19T07:36:04.811Z,7.90
2018-12-19T07:37:04.810Z,7.00
2018-12-19T07:38:04.784Z,9.20
2018-12-19T07:39:04.774Z,7.70
2018-12-19T07:40:04.774Z,4.60
2018-12-19T07:41:04.761Z,6.90
2018-12-19T07:42:04.768Z,7.30
2018-12-19T07:43:04.742Z,5.90
2018-12-19T07:44:04.803Z,8.00
2018-12-19T07:45:04.726Z,6.90
2018-12-19T07:46:04.719Z,7.20
2018-12-19T07:47:04.718Z,5.80
2018-12-19T07:48:04.719Z,8.30
2018-12-19T07:49:04.701Z,7.20
2018-12-19T07:50:04.689Z,9.80
2018-12-19T07:51:04.677Z,5.60
2018-12-19T07:52:04.672Z,6.50
2018-12-19T07:53:04.668Z,7.50
2018-12-19T07:54:04.678Z,7.70
2018-12-19T07:55:04.660Z,9.00
2018-12-19T07:56:04.641Z,7.10
2018-12-19T07:57:04.636Z,7.90
2018-12-19T07:58:04.640Z,8.60
2018-12-19T07:59:04.612Z,9.40
2018-12-19T08:00:04.607Z,8.40
2018-12-19T08:01:04.597Z,6.60
2018-12-19T08:02:04.602Z,9.20
2018-12-19T08:03:04.581Z,8.80
2018-12-19T08:04:04.583Z,9.40
2018-12-19T08:05:04.582Z,8.60
2018-12-19T08:06:04.559Z,6.50
2018-12-19T08:07:04.548Z,4.80
2018-12-19T08:08:04.542Z,8.60
2018-12-19T08:09:04.541Z,6.90
2018-12-19T08:10:04.525Z,6.10
2018-12-19T08:11:04.515Z,7.00
2018-12-19T08:12:04.523Z,9.20
2018-12-19T08:13:04.503Z,8.60
2018-12-19T08:14:04.492Z,9.60
2018-12-19T08:15:04.486Z,8.40
2018-12-19T08:16:04.480Z,9.80
2018-12-19T08:17:04.466Z,10.00
2018-12-19T08:18:05.687Z,7.70
2018-12-19T08:19:04.463Z,8.40
2018-12-19T08:20:04.462Z,9.10
2018-12-19T08:21:04.433Z,11.40
2018-12-19T08:22:04.427Z,9.80
2018-12-19T08:23:04.419Z,11.10
2018-12-19T08:24:04.412Z,7.90
2018-12-19T08:25:04.405Z,10.80
2018-12-19T08:26:04.407Z,11.10
2018-12-19T08:27:04.386Z,9.10
2018-12-19T08:28:04.379Z,10.50
2018-12-19T08:29:04.368Z,12.10
2018-12-19T08:30:04.361Z,12.90
2018-12-19T08:31:04.351Z,9.00
2018-12-19T08:32:04.345Z,11.30
2018-12-19T08:33:04.335Z,10.40
2018-12-19T08:34:04.349Z,11.40
2018-12-19T08:35:04.321Z,11.00
2018-12-19T08:36:04.315Z,14.60
2018-12-19T08:37:04.302Z,10.90
2018-12-19T08:38:04.295Z,12.00
2018-12-19T08:39:04.302Z,12.10
2018-12-19T08:40:04.288Z,12.70
2018-12-19T08:41:04.269Z,12.30
2018-12-19T08:42:04.262Z,10.00
2018-12-19T08:43:04.252Z,10.10
2018-12-19T08:44:04.247Z,13.30
2018-12-19T08:45:04.237Z,12.40
2018-12-19T08:46:04.240Z,12.30
2018-12-19T08:47:04.219Z,12.30
2018-12-19T08:48:04.220Z,12.90
2018-12-19T08:49:04.203Z,11.90
2018-12-19T08:50:05.057Z,12.70
2018-12-19T08:51:04.192Z,13.40
2018-12-19T08:52:04.196Z,13.80
2018-12-19T08:53:04.170Z,14.50
2018-12-19T08:54:04.165Z,12.80
2018-12-19T08:55:04.153Z,14.10
2018-12-19T08:56:04.149Z,13.40
2018-12-19T08:57:04.137Z,13.40
2018-12-19T08:58:04.130Z,14.00
2018-12-19T08:59:04.126Z,13.90
2018-12-19T09:00:04.128Z,12.40
2018-12-19T09:01:04.104Z,13.10
2018-12-19T09:02:04.097Z,13.10
2018-12-19T09:03:04.095Z,13.10
2018-12-19T09:04:04.088Z,14.50
2018-12-19T09:05:04.073Z,15.10
2018-12-19T09:06:04.064Z,14.10
2018-12-19T09:07:04.054Z,12.80
2018-12-19T09:08:04.048Z,15.60
2018-12-19T09:09:04.041Z,13.30
2018-12-19T09:10:04.034Z,13.90
2018-12-19T09:11:05.841Z,14.90
2018-12-19T09:12:04.034Z,14.60
2018-12-19T09:13:04.004Z,14.00
2018-12-19T09:14:03.997Z,15.70
2018-12-19T09:15:04.016Z,13.70
2018-12-19T09:16:03.983Z,13.50
2018-12-19T09:17:03.971Z,15.00
2018-12-19T09:18:03.967Z,12.60
2018-12-19T09:19:03.955Z,12.10
2018-12-19T09:20:03.951Z,11.30
2018-12-19T09:21:03.939Z,12.40
2018-12-19T09:22:03.932Z,8.00
2018-12-19T09:23:03.922Z,12.00
2018-12-19T09:24:03.926Z,11.20
2018-12-19T09:25:03.906Z,11.40
2018-12-19T09:26:03.900Z,8.90
2018-12-19T09:27:03.890Z,10.60
2018-12-19T09:28:03.884Z,12.20
2018-12-19T09:29:03.880Z,10.00
2018-12-19T09:30:03.891Z,11.30
2018-12-19T09:31:03.860Z,10.30
2018-12-19T09:32:03.853Z,9.50
2018-12-19T09:33:03.843Z,10.10
2018-12-19T09:34:03.835Z,10.70
2018-12-19T09:35:03.835Z,10.00
2018-12-19T09:36:03.829Z,9.70
2018-12-19T09:37:03.827Z,10.30
2018-12-19T09:38:03.804Z,8.40
2018-12-19T09:39:03.793Z,9.40
2018-12-19T09:40:03.833Z,8.90
2018-12-19T09:41:03.781Z,10.80
2018-12-19T09:42:03.770Z,9.10
2018-12-19T09:43:03.781Z,8.50
2018-12-19T09:44:03.771Z,8.40
2018-12-19T09:45:03.771Z,6.70
2018-12-19T09:46:03.741Z,9.10
2018-12-19T09:47:03.744Z,9.00
2018-12-19T09:48:03.721Z,8.80
2018-12-19T09:49:03.715Z,8.60
2018-12-19T09:50:03.709Z,9.10
2018-12-19T09:51:03.701Z,9.60
2018-12-19T09:52:03.700Z,8.40
2018-12-19T09:53:03.684Z,8.00
2018-12-19T09:54:03.684Z,7.50
2018-12-19T09:55:03.691Z,7.90
2018-12-19T09:56:03.664Z,8.20
2018-12-19T09:57:03.654Z,8.70
2018-12-19T09:58:03.645Z,9.70
2018-12-19T09:59:03.638Z,8.90
2018-12-19T10:00:03.627Z,9.00
2018-12-19T10:01:05.468Z,8.70
2018-12-19T10:02:03.614Z,9.00
2018-12-19T10:03:03.607Z,8.10
2018-12-19T10:04:03.597Z,8.20
2018-12-19T10:05:03.593Z,8.80
2018-12-19T10:06:03.586Z,8.10
2018-12-19T10:07:03.579Z,8.10
2018-12-19T10:08:03.570Z,8.00
2018-12-19T10:09:03.564Z,8.40
2018-12-19T10:10:03.552Z,6.40
2018-12-19T10:11:03.547Z,7.60
2018-12-19T10:12:03.538Z,7.70
2018-12-19T10:13:03.534Z,6.40
2018-12-19T10:14:03.524Z,7.80
2018-12-19T10:15:03.519Z,8.20
2018-12-19T10:16:04.233Z,7.40
2018-12-19T10:17:03.504Z,7.00
2018-12-19T10:18:03.493Z,6.80
2018-12-19T10:19:03.490Z,7.50
2018-12-19T10:20:03.479Z,7.20
2018-12-19T10:21:03.474Z,6.00
2018-12-19T10:22:03.465Z,7.20
2018-12-19T10:23:03.461Z,8.50
2018-12-19T10:24:03.457Z,8.30
2018-12-19T10:25:03.446Z,6.50
2018-12-19T10:26:03.435Z,7.10
2018-12-19T10:27:03.431Z,7.70
2018-12-19T10:28:03.422Z,8.00
2018-12-19T10:29:03.418Z,7.80
2018-12-19T10:30:03.408Z,4.10
2018-12-19T10:31:03.409Z,6.10
2018-12-19T10:32:03.397Z,6.40
2018-12-19T10:33:03.390Z,3.90
2018-12-19T10:34:03.380Z,3.10
2018-12-19T10:35:03.376Z,7.10
2018-12-19T10:36:03.366Z,6.70
2018-12-19T10:37:03.362Z,5.40
2018-12-19T10:38:03.352Z,6.40
2018-12-19T10:39:03.359Z,6.30
2018-12-19T10:40:03.338Z,6.70
2018-12-19T10:41:03.334Z,6.30
2018-12-19T10:42:03.328Z,6.80
2018-12-19T10:43:03.320Z,6.40
2018-12-19T10:44:03.310Z,6.50
2018-12-19T10:45:03.306Z,7.40
2018-12-19T10:46:03.296Z,4.00
2018-12-19T10:47:03.291Z,5.80
2018-12-19T10:48:03.283Z,5.80
2018-12-19T10:49:03.528Z,5.70
2018-12-19T10:50:03.268Z,6.00
2018-12-19T10:51:03.266Z,6.20
2018-12-19T10:52:03.255Z,7.40
2018-12-19T10:53:03.250Z,5.80
2018-12-19T10:54:03.243Z,6.20
2018-12-19T10:55:03.235Z,7.10
2018-12-19T10:56:03.227Z,6.50
2018-12-19T10:57:03.223Z,7.00
2018-12-19T10:58:03.226Z,6.30
2018-12-19T10:59:03.212Z,4.90
2018-12-19T11:00:03.215Z,6.20
2018-12-19T11:01:03.195Z,8.50
2018-12-19T11:02:03.186Z,6.60
2018-12-19T11:03:03.184Z,6.90
2018-12-19T11:04:03.173Z,7.80
2018-12-19T11:05:03.168Z,4.70
2018-12-19T11:06:03.159Z,7.40
2018-12-19T11:07:03.155Z,5.00
2018-12-19T11:08:03.147Z,5.30
2018-12-19T11:09:03.142Z,5.70
2018-12-19T11:10:03.132Z,5.80
2018-12-19T11:11:03.128Z,6.90
2018-12-19T11:12:03.119Z,4.10
2018-12-19T11:13:03.115Z,5.80
2018-12-19T11:14:03.105Z,8.00
2018-12-19T11:15:03.101Z,5.30
2018-12-19T11:16:03.092Z,6.50
2018-12-19T11:17:03.088Z,5.70
2018-12-19T11:18:03.078Z,6.00
2018-12-19T11:19:03.075Z,7.40
2018-12-19T11:20:03.065Z,5.90
2018-12-19T11:21:03.061Z,6.30
2018-12-19T11:22:03.052Z,5.00
2018-12-19T11:23:03.047Z,6.40
2018-12-19T11:24:03.038Z,7.50
2018-12-19T11:25:03.334Z,6.10
2018-12-19T11:26:03.027Z,5.60
2018-12-19T11:27:03.020Z,6.90
2018-12-19T11:28:03.014Z,5.60
2018-12-19T11:29:03.008Z,6.00
2018-12-19T11:30:03.007Z,5.40
2018-12-19T11:31:02.994Z,7.50
2018-12-19T11:32:02.987Z,5.90
2018-12-19T11:33:02.981Z,6.50
2018-12-19T11:34:02.973Z,6.30
2018-12-19T11:35:02.968Z,6.20
2018-12-19T11:36:02.959Z,6.30
2018-12-19T11:37:02.955Z,6.80
2018-12-19T11:38:02.945Z,6.40
2018-12-19T11:39:02.941Z,8.30
2018-12-19T11:40:02.933Z,6.80
2018-12-19T11:41:02.930Z,5.40
2018-12-19T11:42:02.919Z,6.00
2018-12-19T11:43:02.915Z,6.00
2018-12-19T11:44:02.908Z,5.70
2018-12-19T11:45:02.909Z,5.80
2018-12-19T11:46:02.899Z,6.10
2018-12-19T11:47:02.893Z,6.80
2018-12-19T11:48:02.902Z,5.60
2018-12-19T11:49:02.906Z,6.00
2018-12-19T11:50:02.870Z,6.20
2018-12-19T11:51:02.863Z,5.80
2018-12-19T11:52:02.860Z,6.00
2018-12-19T11:53:02.851Z,6.10
2018-12-19T11:54:02.842Z,5.80
2018-12-19T11:55:02.847Z,5.20
2018-12-19T11:56:02.844Z,4.60
2018-12-19T11:57:02.843Z,6.00
2018-12-19T11:58:02.815Z,6.20
2018-12-19T11:59:02.811Z,5.70
2018-12-19T12:00:02.803Z,5.80
2018-12-19T12:01:02.799Z,6.00
2018-12-19T12:02:02.790Z,6.00
2018-12-19T12:03:02.788Z,5.50
2018-12-19T12:04:02.778Z,6.30
2018-12-19T12:05:02.807Z,6.40
2018-12-19T12:06:02.767Z,7.30
2018-12-19T12:07:02.761Z,7.40
2018-12-19T12:08:02.752Z,6.90
2018-12-19T12:09:02.772Z,5.70
2018-12-19T12:10:02.739Z,5.00
2018-12-19T12:11:02.735Z,7.30
2018-12-19T12:12:02.729Z,5.50
2018-12-19T12:13:02.722Z,4.70
2018-12-19T12:14:02.713Z,5.30
2018-12-19T12:15:02.710Z,5.30
2018-12-19T12:16:02.701Z,5.20
2018-12-19T12:17:02.697Z,6.20
2018-12-19T12:18:02.696Z,6.20
2018-12-19T12:19:02.684Z,5.10
2018-12-19T12:20:02.677Z,5.70
2018-12-19T12:21:02.675Z,6.60
2018-12-19T12:22:02.663Z,6.20
2018-12-19T12:23:02.660Z,5.20
2018-12-19T12:24:02.652Z,5.50
2018-12-19T12:25:02.646Z,6.10
2018-12-19T12:26:02.637Z,7.00
2018-12-19T12:27:02.636Z,6.00
2018-12-19T12:28:02.627Z,5.80
2018-12-19T12:29:02.622Z,5.70
2018-12-19T12:30:02.613Z,7.90
2018-12-19T12:31:02.609Z,6.00
2018-12-19T12:32:02.601Z,5.60
2018-12-19T12:33:02.597Z,6.70
2018-12-19T12:34:02.593Z,6.10
2018-12-19T12:35:02.584Z,6.40
2018-12-19T12:36:02.578Z,6.40
2018-12-19T12:37:02.573Z,7.50
2018-12-19T12:38:02.565Z,6.10
2018-12-19T12:39:02.562Z,6.10
2018-12-19T12:40:02.553Z,7.10
2018-12-19T12:41:02.550Z,6.10
2018-12-19T12:42:02.541Z,6.80
2018-12-19T12:43:02.539Z,5.90
2018-12-19T12:44:02.530Z,6.30
2018-12-19T12:45:02.527Z,6.60
2018-12-19T12:46:02.517Z,6.70
2018-12-19T12:47:02.514Z,6.70
2018-12-19T12:48:02.505Z,5.70
2018-12-19T12:49:02.502Z,7.80
2018-12-19T12:50:02.492Z,6.20
2018-12-19T12:51:02.489Z,6.00
2018-12-19T12:52:02.481Z,5.60
2018-12-19T12:53:02.546Z,6.40
2018-12-19T12:54:02.470Z,7.30
2018-12-19T12:55:02.465Z,5.90
2018-12-19T12:56:02.457Z,7.20
2018-12-19T12:57:02.470Z,6.20
2018-12-19T12:58:02.444Z,6.30
2018-12-19T12:59:02.441Z,7.40
2018-12-19T13:00:02.458Z,6.70
2018-12-19T13:01:02.429Z,6.70
2018-12-19T13:02:02.454Z,6.60
2018-12-19T13:03:02.418Z,6.10
2018-12-19T13:04:02.409Z,6.40
2018-12-19T13:05:02.405Z,6.40
2018-12-19T13:06:02.399Z,7.40
2018-12-19T13:07:02.395Z,6.10
2018-12-19T13:08:02.387Z,7.40
2018-12-19T13:09:02.381Z,7.70
2018-12-19T13:10:02.373Z,7.40
2018-12-19T13:11:02.372Z,7.30
2018-12-19T13:12:02.361Z,6.50
2018-12-19T13:13:02.358Z,6.40
2018-12-19T13:14:02.351Z,7.30
2018-12-19T13:15:02.345Z,7.00
2018-12-19T13:16:02.339Z,7.00